sensor_id;sensor_type;location;lat;lon;timestamp;temperature;humidity
13835;DHT22;6988;52.614;13.500;2023-04-01T00:01:04;9.60;99.90
13835;DHT22;6988;52.614;13.500;2023-04-01T00:05:58;9.60;99.90
13835;DHT22;6988;52.614;13.500;2023-04-01T00:10:50;9.60;99.90
13835;DHT22;6988;52.614;13.500;2023-04-01T00:15:42;9.60;99.90
13835;DHT22;6988;52.614;13.500;2023-04-01T00:20:36;9.60;99.90
13835;DHT22;6988;52.614;13.500;2023-04-01T00:31:59;9.50;99.90
13835;DHT22;6988;52.614;13.500;2023-04-01T00:43:23;9.50;99.90
13835;DHT22;6988;52.614;13.500;2023-04-01T00:48:18;9.50;99.90
13835;DHT22;6988;52.614;13.500;2023-04-01T00:53:14;9.50;99.90
13835;DHT22;6988;52.614;13.500;2023-04-01T00:58:09;9.50;99.90
13835;DHT22;6988;52.614;13.500;2023-04-01T01:03:07;9.60;99.90
13835;DHT22;6988;52.614;13.500;2023-04-01T01:14:48;9.60;99.90
13835;DHT22;6988;52.614;13.500;2023-04-01T01:20:14;9.50;99.90
13835;DHT22;6988;52.614;13.500;2023-04-01T01:25:32;9.60;99.90
13835;DHT22;6988;52.614;13.500;2023-04-01T01:30:43;9.60;99.90
13835;DHT22;6988;52.614;13.500;2023-04-01T01:35:46;9.60;99.90
13835;DHT22;6988;52.614;13.500;2023-04-01T01:40:48;9.50;99.90
13835;DHT22;6988;52.614;13.500;2023-04-01T01:45:46;9.50;99.90
13835;DHT22;6988;52.614;13.500;2023-04-01T01:50:41;9.50;99.90
13835;DHT22;6988;52.614;13.500;2023-04-01T01:55:38;9.50;99.90
13835;DHT22;6988;52.614;13.500;2023-04-01T02:00:33;9.50;99.90
13835;DHT22;6988;52.614;13.500;2023-04-01T02:05:27;9.50;99.90
13835;DHT22;6988;52.614;13.500;2023-04-01T02:10:31;9.50;99.90
13835;DHT22;6988;52.614;13.500;2023-04-01T02:15:31;9.50;99.90
13835;DHT22;6988;52.614;13.500;2023-04-01T02:20:29;9.50;99.90
13835;DHT22;6988;52.614;13.500;2023-04-01T02:25:23;9.50;99.90
13835;DHT22;6988;52.614;13.500;2023-04-01T02:30:19;9.50;99.90
13835;DHT22;6988;52.614;13.500;2023-04-01T02:35:15;9.50;99.90
13835;DHT22;6988;52.614;13.500;2023-04-01T02:40:11;9.40;99.90
13835;DHT22;6988;52.614;13.500;2023-04-01T02:45:06;9.40;99.90
13835;DHT22;6988;52.614;13.500;2023-04-01T02:49:59;9.40;99.90
13835;DHT22;6988;52.614;13.500;2023-04-01T02:54:52;9.40;99.90
13835;DHT22;6988;52.614;13.500;2023-04-01T02:59:45;9.50;99.90
13835;DHT22;6988;52.614;13.500;2023-04-01T03:04:36;9.50;99.90
13835;DHT22;6988;52.614;13.500;2023-04-01T03:09:28;9.50;99.90
13835;DHT22;6988;52.614;13.500;2023-04-01T03:14:22;9.50;99.90
13835;DHT22;6988;52.614;13.500;2023-04-01T03:19:13;9.50;99.90
13835;DHT22;6988;52.614;13.500;2023-04-01T03:24:08;9.50;99.90
13835;DHT22;6988;52.614;13.500;2023-04-01T03:29:00;9.50;99.90
13835;DHT22;6988;52.614;13.500;2023-04-01T03:33:53;9.50;99.90
13835;DHT22;6988;52.614;13.500;2023-04-01T03:38:45;9.50;99.90
13835;DHT22;6988;52.614;13.500;2023-04-01T03:43:43;9.50;99.90
13835;DHT22;6988;52.614;13.500;2023-04-01T03:48:35;9.50;99.90
13835;DHT22;6988;52.614;13.500;2023-04-01T03:53:29;9.50;99.90
13835;DHT22;6988;52.614;13.500;2023-04-01T03:58:24;9.50;99.90
13835;DHT22;6988;52.614;13.500;2023-04-01T04:03:17;9.50;99.90
13835;DHT22;6988;52.614;13.500;2023-04-01T04:08:10;9.50;99.90
13835;DHT22;6988;52.614;13.500;2023-04-01T04:13:04;9.50;99.90
13835;DHT22;6988;52.614;13.500;2023-04-01T04:18:01;9.50;99.90
13835;DHT22;6988;52.614;13.500;2023-04-01T04:22:53;9.50;99.90
13835;DHT22;6988;52.614;13.500;2023-04-01T04:27:46;9.50;99.90
13835;DHT22;6988;52.614;13.500;2023-04-01T04:32:41;9.50;99.90
13835;DHT22;6988;52.614;13.500;2023-04-01T04:44:07;9.50;99.90
13835;DHT22;6988;52.614;13.500;2023-04-01T04:49:01;9.50;99.90
13835;DHT22;6988;52.614;13.500;2023-04-01T04:53:54;9.50;99.90
13835;DHT22;6988;52.614;13.500;2023-04-01T04:58:55;9.50;99.90
13835;DHT22;6988;52.614;13.500;2023-04-01T05:03:52;9.50;99.90
13835;DHT22;6988;52.614;13.500;2023-04-01T05:08:45;9.50;99.90
13835;DHT22;6988;52.614;13.500;2023-04-01T05:13:37;9.60;99.90
13835;DHT22;6988;52.614;13.500;2023-04-01T05:18:29;9.50;99.90
13835;DHT22;6988;52.614;13.500;2023-04-01T05:23:22;9.60;99.90
13835;DHT22;6988;52.614;13.500;2023-04-01T05:28:15;9.50;99.90
13835;DHT22;6988;52.614;13.500;2023-04-01T05:33:10;9.60;99.90
13835;DHT22;6988;52.614;13.500;2023-04-01T05:38:04;9.60;99.90
13835;DHT22;6988;52.614;13.500;2023-04-01T05:42:56;9.60;99.90
13835;DHT22;6988;52.614;13.500;2023-04-01T05:47:50;9.60;99.90
13835;DHT22;6988;52.614;13.500;2023-04-01T05:52:42;9.60;99.90
13835;DHT22;6988;52.614;13.500;2023-04-01T05:57:35;9.60;99.90
13835;DHT22;6988;52.614;13.500;2023-04-01T06:02:28;9.70;99.90
13835;DHT22;6988;52.614;13.500;2023-04-01T06:07:21;9.70;99.90
13835;DHT22;6988;52.614;13.500;2023-04-01T06:12:29;9.70;99.90
13835;DHT22;6988;52.614;13.500;2023-04-01T06:17:41;9.70;99.90
13835;DHT22;6988;52.614;13.500;2023-04-01T06:23:33;9.70;99.90
13835;DHT22;6988;52.614;13.500;2023-04-01T06:29:02;9.70;99.90
13835;DHT22;6988;52.614;13.500;2023-04-01T06:34:35;9.70;99.90
13835;DHT22;6988;52.614;13.500;2023-04-01T06:40:22;9.80;99.90
13835;DHT22;6988;52.614;13.500;2023-04-01T06:45:39;9.80;99.90
13835;DHT22;6988;52.614;13.500;2023-04-01T06:57:14;9.90;99.90
13835;DHT22;6988;52.614;13.500;2023-04-01T07:02:21;9.90;99.90
13835;DHT22;6988;52.614;13.500;2023-04-01T07:07:26;9.90;99.90
13835;DHT22;6988;52.614;13.500;2023-04-01T07:12:37;10.00;99.90
13835;DHT22;6988;52.614;13.500;2023-04-01T07:17:56;10.00;99.90
13835;DHT22;6988;52.614;13.500;2023-04-01T07:22:59;10.00;99.90
13835;DHT22;6988;52.614;13.500;2023-04-01T07:28:31;10.00;99.90
13835;DHT22;6988;52.614;13.500;2023-04-01T07:33:36;9.90;99.90
13835;DHT22;6988;52.614;13.500;2023-04-01T07:38:40;9.90;99.90
13835;DHT22;6988;52.614;13.500;2023-04-01T07:44:10;9.80;99.90
13835;DHT22;6988;52.614;13.500;2023-04-01T07:55:48;9.80;99.90
13835;DHT22;6988;52.614;13.500;2023-04-01T08:00:50;9.70;99.90
13835;DHT22;6988;52.614;13.500;2023-04-01T08:05:58;9.70;99.90
13835;DHT22;6988;52.614;13.500;2023-04-01T08:11:01;9.60;99.90
13835;DHT22;6988;52.614;13.500;2023-04-01T08:16:31;9.60;99.90
13835;DHT22;6988;52.614;13.500;2023-04-01T08:21:35;9.70;99.90
13835;DHT22;6988;52.614;13.500;2023-04-01T08:26:35;9.70;99.90
13835;DHT22;6988;52.614;13.500;2023-04-01T08:31:35;9.70;99.90
13835;DHT22;6988;52.614;13.500;2023-04-01T08:36:32;9.70;99.90
13835;DHT22;6988;52.614;13.500;2023-04-01T08:47:51;9.60;99.90
13835;DHT22;6988;52.614;13.500;2023-04-01T08:53:05;9.50;99.90
13835;DHT22;6988;52.614;13.500;2023-04-01T09:09:44;9.40;99.90
13835;DHT22;6988;52.614;13.500;2023-04-01T09:15:21;9.40;99.90
13835;DHT22;6988;52.614;13.500;2023-04-01T09:20:50;9.40;99.90
13835;DHT22;6988;52.614;13.500;2023-04-01T09:32:03;9.40;99.90
13835;DHT22;6988;52.614;13.500;2023-04-01T09:37:23;9.40;99.90
13835;DHT22;6988;52.614;13.500;2023-04-01T09:42:54;9.60;99.90
13835;DHT22;6988;52.614;13.500;2023-04-01T09:48:09;9.60;99.90
13835;DHT22;6988;52.614;13.500;2023-04-01T09:53:20;9.60;99.90
13835;DHT22;6988;52.614;13.500;2023-04-01T09:58:56;9.50;99.90
13835;DHT22;6988;52.614;13.500;2023-04-01T10:10:58;9.40;99.90
13835;DHT22;6988;52.614;13.500;2023-04-01T10:16:38;9.30;99.90
13835;DHT22;6988;52.614;13.500;2023-04-01T10:22:10;9.20;99.90
13835;DHT22;6988;52.614;13.500;2023-04-01T10:27:32;9.20;99.90
13835;DHT22;6988;52.614;13.500;2023-04-01T10:39:28;9.10;99.90
13835;DHT22;6988;52.614;13.500;2023-04-01T10:51:04;9.10;99.90
13835;DHT22;6988;52.614;13.500;2023-04-01T10:56:39;9.20;99.90
13835;DHT22;6988;52.614;13.500;2023-04-01T11:02:08;9.20;99.90
13835;DHT22;6988;52.614;13.500;2023-04-01T11:08:07;9.20;99.90
13835;DHT22;6988;52.614;13.500;2023-04-01T11:13:42;9.20;99.90
13835;DHT22;6988;52.614;13.500;2023-04-01T11:19:35;9.10;99.90
13835;DHT22;6988;52.614;13.500;2023-04-01T11:25:13;9.00;99.90
13835;DHT22;6988;52.614;13.500;2023-04-01T11:31:17;9.00;99.90
13835;DHT22;6988;52.614;13.500;2023-04-01T11:36:33;9.00;99.90
13835;DHT22;6988;52.614;13.500;2023-04-01T11:41:46;9.00;99.90
13835;DHT22;6988;52.614;13.500;2023-04-01T11:47:41;8.90;99.90
13835;DHT22;6988;52.614;13.500;2023-04-01T11:58:31;8.90;99.90
13835;DHT22;6988;52.614;13.500;2023-04-01T12:03:44;8.70;99.90
13835;DHT22;6988;52.614;13.500;2023-04-01T12:08:52;8.70;99.90
13835;DHT22;6988;52.614;13.500;2023-04-01T12:13:55;8.60;99.90
13835;DHT22;6988;52.614;13.500;2023-04-01T12:18:58;8.60;99.90
13835;DHT22;6988;52.614;13.500;2023-04-01T12:24:25;8.50;99.90
13835;DHT22;6988;52.614;13.500;2023-04-01T12:29:57;8.40;99.90
13835;DHT22;6988;52.614;13.500;2023-04-01T12:35:12;8.40;99.90
13835;DHT22;6988;52.614;13.500;2023-04-01T12:40:31;8.40;99.90
13835;DHT22;6988;52.614;13.500;2023-04-01T12:45:39;8.40;99.90
13835;DHT22;6988;52.614;13.500;2023-04-01T12:56:34;8.30;99.90
13835;DHT22;6988;52.614;13.500;2023-04-01T13:02:01;8.20;99.90
13835;DHT22;6988;52.614;13.500;2023-04-01T13:07:22;8.30;99.90
13835;DHT22;6988;52.614;13.500;2023-04-01T13:12:51;8.30;99.90
13835;DHT22;6988;52.614;13.500;2023-04-01T13:17:57;8.30;99.90
13835;DHT22;6988;52.614;13.500;2023-04-01T13:23:01;8.30;99.90
13835;DHT22;6988;52.614;13.500;2023-04-01T13:28:09;8.20;99.90
13835;DHT22;6988;52.614;13.500;2023-04-01T13:33:14;8.20;99.90
13835;DHT22;6988;52.614;13.500;2023-04-01T13:38:30;8.30;99.90
13835;DHT22;6988;52.614;13.500;2023-04-01T13:43:39;8.20;99.90
13835;DHT22;6988;52.614;13.500;2023-04-01T13:48:54;8.10;99.90
13835;DHT22;6988;52.614;13.500;2023-04-01T13:54:17;8.10;99.90
13835;DHT22;6988;52.614;13.500;2023-04-01T13:59:38;8.20;99.90
13835;DHT22;6988;52.614;13.500;2023-04-01T14:04:53;8.10;99.90
13835;DHT22;6988;52.614;13.500;2023-04-01T14:10:07;8.00;99.90
13835;DHT22;6988;52.614;13.500;2023-04-01T14:15:25;8.20;99.90
13835;DHT22;6988;52.614;13.500;2023-04-01T14:20:29;8.00;99.90
13835;DHT22;6988;52.614;13.500;2023-04-01T14:25:43;7.90;99.90
13835;DHT22;6988;52.614;13.500;2023-04-01T14:31:04;7.90;99.90
13835;DHT22;6988;52.614;13.500;2023-04-01T14:36:31;7.90;99.90
13835;DHT22;6988;52.614;13.500;2023-04-01T14:41:41;7.90;99.90
13835;DHT22;6988;52.614;13.500;2023-04-01T14:52:21;7.90;99.90
13835;DHT22;6988;52.614;13.500;2023-04-01T14:57:23;7.90;99.90
13835;DHT22;6988;52.614;13.500;2023-04-01T15:02:43;7.80;99.90
13835;DHT22;6988;52.614;13.500;2023-04-01T15:08:13;7.70;99.90
13835;DHT22;6988;52.614;13.500;2023-04-01T15:13:13;7.90;99.90
13835;DHT22;6988;52.614;13.500;2023-04-01T15:18:13;7.80;99.90
13835;DHT22;6988;52.614;13.500;2023-04-01T15:23:25;7.60;99.90
13835;DHT22;6988;52.614;13.500;2023-04-01T15:28:32;7.40;99.90
13835;DHT22;6988;52.614;13.500;2023-04-01T15:33:46;7.50;99.90
13835;DHT22;6988;52.614;13.500;2023-04-01T15:38:49;7.50;99.90
13835;DHT22;6988;52.614;13.500;2023-04-01T15:43:45;7.50;99.90
13835;DHT22;6988;52.614;13.500;2023-04-01T15:48:49;7.40;99.90
13835;DHT22;6988;52.614;13.500;2023-04-01T15:54:26;7.20;99.90
13835;DHT22;6988;52.614;13.500;2023-04-01T15:59:41;7.20;99.90
13835;DHT22;6988;52.614;13.500;2023-04-01T16:04:54;7.20;99.90
13835;DHT22;6988;52.614;13.500;2023-04-01T16:10:03;7.10;99.90
13835;DHT22;6988;52.614;13.500;2023-04-01T16:15:14;7.10;99.90
13835;DHT22;6988;52.614;13.500;2023-04-01T16:20:18;7.00;99.90
13835;DHT22;6988;52.614;13.500;2023-04-01T16:25:20;6.80;99.90
13835;DHT22;6988;52.614;13.500;2023-04-01T16:30:34;6.80;99.90
13835;DHT22;6988;52.614;13.500;2023-04-01T16:35:37;6.70;99.90
13835;DHT22;6988;52.614;13.500;2023-04-01T16:40:41;6.70;99.90
13835;DHT22;6988;52.614;13.500;2023-04-01T16:45:41;6.70;99.90
13835;DHT22;6988;52.614;13.500;2023-04-01T16:50:52;6.60;99.90
13835;DHT22;6988;52.614;13.500;2023-04-01T16:55:52;6.40;99.90
13835;DHT22;6988;52.614;13.500;2023-04-01T17:00:54;6.40;99.90
13835;DHT22;6988;52.614;13.500;2023-04-01T17:06:02;6.30;99.90
13835;DHT22;6988;52.614;13.500;2023-04-01T17:11:09;6.30;99.90
13835;DHT22;6988;52.614;13.500;2023-04-01T17:21:55;6.20;99.90
13835;DHT22;6988;52.614;13.500;2023-04-01T17:27:00;6.10;99.90
13835;DHT22;6988;52.614;13.500;2023-04-01T17:32:06;6.00;99.90
13835;DHT22;6988;52.614;13.500;2023-04-01T17:37:15;6.10;99.90
13835;DHT22;6988;52.614;13.500;2023-04-01T17:42:19;5.80;99.90
13835;DHT22;6988;52.614;13.500;2023-04-01T17:47:36;5.80;99.90
13835;DHT22;6988;52.614;13.500;2023-04-01T17:52:42;5.70;99.90
13835;DHT22;6988;52.614;13.500;2023-04-01T17:57:45;5.70;99.90
13835;DHT22;6988;52.614;13.500;2023-04-01T18:02:47;5.60;99.90
13835;DHT22;6988;52.614;13.500;2023-04-01T18:13:29;5.40;99.90
13835;DHT22;6988;52.614;13.500;2023-04-01T18:18:50;5.40;99.90
13835;DHT22;6988;52.614;13.500;2023-04-01T18:23:54;5.40;99.90
13835;DHT22;6988;52.614;13.500;2023-04-01T18:28:54;5.30;99.90
13835;DHT22;6988;52.614;13.500;2023-04-01T18:47:00;5.30;99.90
13835;DHT22;6988;52.614;13.500;2023-04-01T18:52:09;5.20;99.90
13835;DHT22;6988;52.614;13.500;2023-04-01T18:57:12;5.20;99.90
13835;DHT22;6988;52.614;13.500;2023-04-01T19:02:18;5.20;99.90
13835;DHT22;6988;52.614;13.500;2023-04-01T19:13:54;5.10;99.90
13835;DHT22;6988;52.614;13.500;2023-04-01T19:19:05;5.00;99.90
13835;DHT22;6988;52.614;13.500;2023-04-01T19:24:26;5.00;99.90
13835;DHT22;6988;52.614;13.500;2023-04-01T19:29:47;4.90;99.90
13835;DHT22;6988;52.614;13.500;2023-04-01T19:34:59;4.90;99.90
13835;DHT22;6988;52.614;13.500;2023-04-01T19:46:38;4.80;99.90
13835;DHT22;6988;52.614;13.500;2023-04-01T19:51:41;4.80;99.90
13835;DHT22;6988;52.614;13.500;2023-04-01T19:56:45;4.80;99.90
13835;DHT22;6988;52.614;13.500;2023-04-01T20:01:48;4.80;99.90
13835;DHT22;6988;52.614;13.500;2023-04-01T20:06:53;4.80;99.90
13835;DHT22;6988;52.614;13.500;2023-04-01T20:11:57;4.70;99.90
13835;DHT22;6988;52.614;13.500;2023-04-01T20:17:00;4.60;99.90
13835;DHT22;6988;52.614;13.500;2023-04-01T20:21:59;4.60;99.90
13835;DHT22;6988;52.614;13.500;2023-04-01T20:27:00;4.50;99.90
13835;DHT22;6988;52.614;13.500;2023-04-01T20:32:06;4.50;99.90
13835;DHT22;6988;52.614;13.500;2023-04-01T20:37:23;4.60;99.90
13835;DHT22;6988;52.614;13.500;2023-04-01T20:42:33;4.60;99.90
13835;DHT22;6988;52.614;13.500;2023-04-01T20:47:52;4.60;99.90
13835;DHT22;6988;52.614;13.500;2023-04-01T20:53:07;4.50;99.90
13835;DHT22;6988;52.614;13.500;2023-04-01T20:58:10;4.50;99.90
13835;DHT22;6988;52.614;13.500;2023-04-01T21:03:19;4.40;99.90
13835;DHT22;6988;52.614;13.500;2023-04-01T21:08:24;4.40;99.90
13835;DHT22;6988;52.614;13.500;2023-04-01T21:13:44;4.40;99.90
13835;DHT22;6988;52.614;13.500;2023-04-01T21:19:02;4.40;99.90
13835;DHT22;6988;52.614;13.500;2023-04-01T21:29:53;4.30;99.90
13835;DHT22;6988;52.614;13.500;2023-04-01T21:34:58;4.20;99.90
13835;DHT22;6988;52.614;13.500;2023-04-01T22:04:29;3.90;99.90
13835;DHT22;6988;52.614;13.500;2023-04-01T22:09:32;3.80;99.90
13835;DHT22;6988;52.614;13.500;2023-04-01T22:14:33;3.80;99.90
13835;DHT22;6988;52.614;13.500;2023-04-01T22:19:41;3.80;99.90
13835;DHT22;6988;52.614;13.500;2023-04-01T22:24:52;3.80;99.90
13835;DHT22;6988;52.614;13.500;2023-04-01T22:30:01;3.80;99.90
13835;DHT22;6988;52.614;13.500;2023-04-01T22:35:08;3.80;99.90
13835;DHT22;6988;52.614;13.500;2023-04-01T22:46:49;3.80;99.90
13835;DHT22;6988;52.614;13.500;2023-04-01T22:51:54;3.80;99.90
13835;DHT22;6988;52.614;13.500;2023-04-01T22:56:57;3.80;99.90
13835;DHT22;6988;52.614;13.500;2023-04-01T23:01:57;3.80;99.90
13835;DHT22;6988;52.614;13.500;2023-04-01T23:06:57;3.80;99.90
13835;DHT22;6988;52.614;13.500;2023-04-01T23:11:56;3.70;99.90
13835;DHT22;6988;52.614;13.500;2023-04-01T23:16:54;3.70;99.90
13835;DHT22;6988;52.614;13.500;2023-04-01T23:22:01;3.70;99.90
13835;DHT22;6988;52.614;13.500;2023-04-01T23:27:00;3.70;99.90
13835;DHT22;6988;52.614;13.500;2023-04-01T23:31:57;3.70;99.90
13835;DHT22;6988;52.614;13.500;2023-04-01T23:36:52;3.70;99.90
13835;DHT22;6988;52.614;13.500;2023-04-01T23:41:48;3.70;99.90
